This is the latest recevied weather packets stored in our database for station/object KQ4HDO. If no packets are shown the sender has not sent any weather packets the latest 10 day(s).
| Time | Temp. | Humidity | Pressure | Rain* | Wind** | Luminosity | Snow |
|---|---|---|---|---|---|---|---|
| 1777343103 | 17.22° C | 92% | 1005.6 hPa | 0 mm | - | - | - |
| 1777341903 | 17.78° C | 91% | 1005.2 hPa | 0 mm | - | - | - |
| 1777338003 | 19.44° C | 85% | 1002.7 hPa | 0 mm | - | - | - |
| 1777337838 | 19.44° C | 85% | 1002.6 hPa | 0 mm | - | - | - |
| 1777335303 | 20° C | 83% | 1001.2 hPa | 0 mm | - | - | - |
| 1777334403 | 20° C | 84% | 1001.2 hPa | 0.51 mm | - | - | - |
| 1777332003 | 18.89° C | 87% | 1001.1 hPa | 0.76 mm | - | - | - |
| 1777331103 | 19.44° C | 85% | 1000.6 hPa | 0.51 mm | - | - | - |
| 1777330938 | 19.44° C | 85% | 1000.6 hPa | 0.51 mm | - | - | - |
| 1777330338 | 20° C | 88% | 1001.4 hPa | 0 mm | - | - | - |
| 1777329903 | 20.56° C | 93% | 1001.2 hPa | 0 mm | - | - | - |
| 1777329303 | 20.56° C | 92% | 999.7 hPa | 0 mm | - | - | - |
| 1777328403 | 20.56° C | 92% | 999.8 hPa | 0 mm | - | - | - |
| 1777326303 | 21.11° C | 90% | 999.9 hPa | 0 mm | - | - | - |
| 1777325403 | 21.11° C | 90% | 999.8 hPa | 0 mm | - | - | - |
| 1777324503 | 21.11° C | 89% | 1000 hPa | 0 mm | - | - | - |
| 1777322403 | 21.11° C | 88% | 1000.8 hPa | 5.59 mm | - | - | - |
| 1777322103 | 21.67° C | 86% | 1001 hPa | 6.1 mm | - | - | - |
| 1777319403 | 18.33° C | 92% | 1001.7 hPa | 6.1 mm | - | - | - |
| 1777319238 | 18.33° C | 92% | 1002.2 hPa | 4.83 mm | - | - | - |
| 1777318803 | 18.33° C | 91% | 1001.5 hPa | 1.02 mm | - | - | - |
| 1777317603 | 18.89° C | 90% | 1002.2 hPa | 0 mm | - | - | - |
| 1777316838 | 18.89° C | 90% | 1002 hPa | 0 mm | - | - | - |
| 1777316403 | 18.89° C | 90% | 1002.1 hPa | 0 mm | - | - | - |
| 1777314303 | 17.78° C | 93% | 1002.6 hPa | 1.02 mm | - | - | - |
* Rain latest hour (hover to see other rain measurements)
** Current wind speed in m/s (hover to see current wind gust speed)